createdAt,value
2018-07-05T00:01:20.839Z,7.17
2018-07-05T00:04:02.287Z,5.50
2018-07-05T00:06:43.427Z,7.87
2018-07-05T00:09:24.717Z,10.70
2018-07-05T00:12:05.893Z,8.37
2018-07-05T00:14:47.112Z,9.63
2018-07-05T00:17:28.211Z,7.30
2018-07-05T00:20:10.245Z,6.57
2018-07-05T00:22:51.358Z,8.63
2018-07-05T00:25:32.603Z,7.30
2018-07-05T00:28:13.821Z,6.87
2018-07-05T00:30:55.167Z,6.20
2018-07-05T00:33:36.405Z,8.27
2018-07-05T00:36:17.681Z,7.47
2018-07-05T00:39:00.595Z,11.37
2018-07-05T00:41:41.646Z,8.00
2018-07-05T00:44:23.072Z,7.53
2018-07-05T00:47:05.046Z,7.37
2018-07-05T00:49:46.234Z,9.80
2018-07-05T00:52:27.658Z,7.57
2018-07-05T00:55:09.481Z,14.57
2018-07-05T00:57:50.694Z,8.07
2018-07-05T01:00:31.798Z,18.27
2018-07-05T01:03:12.977Z,11.97
2018-07-05T01:05:54.605Z,10.60
2018-07-05T01:08:36.139Z,8.27
2018-07-05T01:11:17.536Z,8.63
2018-07-05T01:13:58.780Z,8.97
2018-07-05T01:16:40.146Z,10.63
2018-07-05T01:19:21.792Z,12.13
2018-07-05T01:22:03.743Z,9.20
2018-07-05T01:24:45.170Z,14.27
2018-07-05T01:27:26.541Z,12.53
2018-07-05T01:30:08.791Z,8.80
2018-07-05T01:32:50.997Z,9.57
2018-07-05T01:35:32.443Z,10.73
2018-07-05T01:38:13.617Z,9.37
2018-07-05T01:40:55.034Z,10.67
2018-07-05T01:43:36.255Z,11.80
2018-07-05T01:46:18.157Z,10.53
2018-07-05T01:49:00.564Z,9.30
2018-07-05T01:51:42.049Z,9.80
2018-07-05T01:54:23.237Z,9.80
2018-07-05T01:57:04.321Z,9.33
2018-07-05T01:59:45.497Z,9.10
2018-07-05T02:02:26.910Z,9.17
2018-07-05T02:05:08.054Z,10.07
2018-07-05T02:07:49.068Z,10.30
2018-07-05T02:10:30.239Z,9.40
2018-07-05T02:13:11.526Z,9.17
2018-07-05T02:15:52.658Z,10.50
2018-07-05T02:18:33.876Z,10.40
2018-07-05T02:21:15.318Z,11.00
2018-07-05T02:23:56.541Z,10.47
2018-07-05T02:26:37.800Z,9.73
2018-07-05T02:29:20.164Z,11.00
2018-07-05T02:32:01.286Z,10.47
2018-07-05T02:34:42.569Z,10.73
2018-07-05T02:37:28.932Z,10.13
2018-07-05T02:40:10.172Z,10.77
2018-07-05T02:42:51.483Z,13.43
2018-07-05T02:45:32.885Z,12.80
2018-07-05T02:48:14.111Z,11.80
2018-07-05T02:50:55.364Z,11.07
2018-07-05T02:53:36.656Z,11.83
2018-07-05T02:56:18.024Z,12.37
2018-07-05T02:58:59.155Z,13.90
2018-07-05T03:01:40.381Z,17.30
2018-07-05T03:04:21.672Z,11.93
2018-07-05T03:07:03.098Z,11.53
2018-07-05T03:09:44.380Z,12.30
2018-07-05T03:12:25.590Z,13.00
2018-07-05T03:15:08.480Z,14.90
2018-07-05T03:17:50.457Z,13.57
2018-07-05T03:20:32.250Z,12.73
2018-07-05T03:23:13.663Z,12.57
2018-07-05T03:25:54.816Z,12.57
2018-07-05T03:28:35.898Z,12.53
2018-07-05T03:31:17.160Z,12.63
2018-07-05T03:33:58.404Z,15.20
2018-07-05T03:36:39.651Z,11.70
2018-07-05T03:39:21.195Z,13.23
2018-07-05T03:42:03.450Z,13.83
2018-07-05T03:44:45.138Z,14.50
2018-07-05T03:47:26.471Z,12.77
2018-07-05T03:50:08.778Z,14.47
2018-07-05T03:52:50.182Z,12.97
2018-07-05T03:55:31.391Z,14.73
2018-07-05T03:58:12.768Z,13.70
2018-07-05T04:00:54.135Z,13.73
2018-07-05T04:03:35.655Z,14.50
2018-07-05T04:06:17.702Z,13.17
2018-07-05T04:08:59.088Z,14.07
2018-07-05T04:11:40.538Z,14.27
2018-07-05T04:14:22.216Z,12.53
2018-07-05T04:17:03.615Z,16.13
2018-07-05T04:19:48.397Z,13.47
2018-07-05T04:22:29.567Z,13.40
2018-07-05T04:25:12.085Z,13.10
2018-07-05T04:27:53.457Z,17.53
2018-07-05T04:30:34.801Z,12.57
2018-07-05T04:33:15.950Z,15.50
2018-07-05T04:35:57.460Z,14.17
2018-07-05T04:38:38.845Z,13.77
2018-07-05T04:41:20.577Z,14.47
2018-07-05T04:44:01.769Z,12.83
2018-07-05T04:46:43.059Z,16.97
2018-07-05T04:49:24.947Z,16.43
2018-07-05T04:52:06.231Z,13.90
2018-07-05T04:54:49.249Z,18.83
2018-07-05T04:57:30.409Z,15.60
2018-07-05T05:00:11.863Z,13.57
2018-07-05T05:02:52.908Z,14.60
2018-07-05T05:05:34.390Z,14.13
2018-07-05T05:08:18.266Z,23.20
2018-07-05T05:11:01.442Z,17.17
2018-07-05T05:13:42.958Z,15.77
2018-07-05T05:16:24.083Z,21.03
2018-07-05T05:19:05.132Z,20.67
2018-07-05T05:21:46.280Z,12.60
2018-07-05T05:24:27.729Z,13.57
2018-07-05T05:27:08.892Z,15.07
2018-07-05T05:29:49.984Z,23.90
2018-07-05T05:32:33.009Z,15.67
2018-07-05T05:35:14.024Z,15.57
2018-07-05T05:37:59.502Z,13.97
2018-07-05T05:40:40.780Z,16.50
2018-07-05T05:43:15.801Z,18.80
2018-07-05T05:48:58.472Z,14.00
2018-07-05T05:51:40.410Z,12.43
2018-07-05T05:54:22.020Z,16.93
2018-07-05T05:57:03.578Z,18.53
2018-07-05T05:59:45.619Z,12.80
2018-07-05T06:02:27.852Z,13.67
2018-07-05T06:05:09.190Z,13.07
2018-07-05T06:07:50.472Z,14.37
2018-07-05T06:10:31.695Z,17.43
2018-07-05T06:13:13.605Z,18.93
2018-07-05T06:15:55.517Z,17.03
2018-07-05T06:18:37.043Z,16.37
2018-07-05T06:21:18.513Z,19.23
2018-07-05T06:24:04.712Z,23.20
2018-07-05T06:26:46.189Z,18.63
2018-07-05T06:29:29.952Z,16.67
2018-07-05T06:32:11.062Z,14.37
2018-07-05T06:34:52.224Z,11.60
2018-07-05T06:37:33.509Z,14.37
2018-07-05T06:40:14.845Z,12.73
2018-07-05T06:42:56.062Z,11.27
2018-07-05T06:45:37.644Z,13.37
2018-07-05T06:48:18.924Z,14.70
2018-07-05T06:51:03.263Z,11.20
2018-07-05T06:53:44.542Z,9.97
2018-07-05T06:56:25.940Z,11.37
2018-07-05T06:59:07.164Z,10.20
2018-07-05T07:01:48.950Z,14.00
2018-07-05T07:04:30.602Z,9.70
2018-07-05T07:07:12.080Z,7.63
2018-07-05T07:09:53.065Z,7.73
2018-07-05T07:12:34.304Z,7.90
2018-07-05T07:15:15.621Z,8.83
2018-07-05T07:17:57.051Z,12.10
2018-07-05T07:20:38.425Z,10.30
2018-07-05T07:23:19.782Z,12.57
2018-07-05T07:26:01.430Z,8.70
2018-07-05T07:28:43.577Z,7.30
2018-07-05T07:31:24.943Z,8.47
2018-07-05T07:34:05.936Z,6.63
2018-07-05T07:36:48.210Z,7.77
2018-07-05T07:39:29.551Z,4.87
2018-07-05T07:41:58.953Z,9.80
2018-07-05T07:44:27.886Z,5.87
2018-07-05T07:46:57.797Z,7.33
2018-07-05T07:49:27.160Z,6.65
2018-07-05T07:51:56.857Z,4.37
2018-07-05T07:54:26.361Z,4.90
2018-07-05T07:56:55.581Z,7.08
2018-07-05T07:59:25.599Z,4.25
2018-07-05T08:01:54.929Z,3.55
2018-07-05T08:04:24.147Z,4.10
2018-07-05T08:06:53.211Z,4.03
2018-07-05T08:09:23.013Z,6.70
2018-07-05T08:11:52.865Z,4.40
2018-07-05T08:14:22.005Z,5.67
2018-07-05T08:16:51.735Z,4.12
2018-07-05T08:19:20.993Z,4.95
2018-07-05T08:21:50.942Z,4.67
2018-07-05T08:24:19.929Z,6.50
2018-07-05T08:26:48.913Z,9.40
2018-07-05T08:29:18.963Z,4.80
2018-07-05T08:31:47.927Z,5.05
2018-07-05T08:34:18.246Z,6.47
2018-07-05T08:36:48.519Z,5.25
2018-07-05T08:39:18.507Z,21.30
2018-07-05T08:41:48.491Z,6.05
2018-07-05T08:44:17.443Z,5.45
2018-07-05T08:46:46.541Z,5.35
2018-07-05T08:49:15.977Z,5.70
2018-07-05T08:51:45.961Z,3.85
2018-07-05T08:54:15.480Z,5.60
2018-07-05T08:56:46.077Z,5.22
2018-07-05T08:59:15.356Z,6.90
2018-07-05T09:01:45.596Z,4.17
2018-07-05T09:04:14.776Z,8.48
2018-07-05T09:06:45.418Z,3.60
2018-07-05T09:09:15.097Z,3.12
2018-07-05T09:11:45.160Z,5.90
2018-07-05T09:14:14.757Z,4.00
2018-07-05T09:16:44.020Z,4.55
2018-07-05T09:19:13.390Z,3.22
2018-07-05T09:21:42.995Z,4.53
2018-07-05T09:24:14.180Z,6.15
2018-07-05T09:26:43.796Z,4.42
2018-07-05T09:29:13.670Z,3.55
2018-07-05T09:31:43.020Z,3.33
2018-07-05T09:34:13.317Z,3.05
2018-07-05T09:36:42.320Z,3.40
2018-07-05T09:41:55.388Z,2.15
2018-07-05T09:44:24.802Z,2.37
2018-07-05T09:46:54.140Z,5.30
2018-07-05T09:49:23.743Z,4.80
2018-07-05T09:51:53.660Z,2.42
2018-07-05T09:54:23.558Z,2.35
2018-07-05T09:56:53.755Z,5.37
2018-07-05T09:59:23.030Z,2.45
2018-07-05T10:01:52.938Z,2.98
2018-07-05T10:04:23.010Z,4.00
2018-07-05T10:06:52.653Z,2.70
2018-07-05T10:09:21.652Z,3.50
2018-07-05T10:11:51.232Z,2.45
2018-07-05T10:14:22.081Z,2.30
2018-07-05T10:16:51.193Z,2.40
2018-07-05T10:19:21.466Z,3.85
2018-07-05T10:21:51.226Z,2.92
2018-07-05T10:24:20.567Z,2.72
2018-07-05T10:26:49.666Z,2.75
2018-07-05T10:29:31.571Z,2.27
2018-07-05T10:32:12.858Z,2.00
2018-07-05T10:34:41.982Z,3.33
2018-07-05T10:37:11.414Z,2.77
2018-07-05T10:39:40.418Z,2.10
2018-07-05T10:42:22.703Z,2.60
2018-07-05T10:45:04.212Z,4.20
2018-07-05T10:47:45.329Z,2.98
2018-07-05T10:50:26.470Z,2.50
2018-07-05T10:53:07.802Z,2.37
2018-07-05T10:55:49.052Z,2.42
2018-07-05T10:58:30.272Z,5.17
2018-07-05T11:01:15.952Z,6.17
2018-07-05T11:03:57.345Z,5.33
2018-07-05T11:06:39.172Z,2.58
2018-07-05T11:09:20.307Z,2.90
2018-07-05T11:12:01.594Z,2.30
2018-07-05T11:14:46.806Z,2.25
2018-07-05T11:17:31.324Z,2.37
2018-07-05T11:20:12.669Z,2.00
2018-07-05T11:22:54.235Z,2.80
2018-07-05T11:25:35.508Z,5.12
2018-07-05T11:28:16.792Z,2.58
2018-07-05T11:30:58.150Z,4.47
2018-07-05T11:33:39.298Z,2.58
2018-07-05T11:36:20.824Z,2.45
2018-07-05T11:39:02.887Z,2.20
2018-07-05T11:41:44.083Z,2.92
2018-07-05T11:44:26.474Z,2.65
2018-07-05T11:47:07.732Z,2.83
2018-07-05T11:49:49.199Z,1.92
2018-07-05T11:52:30.682Z,2.72
2018-07-05T11:55:11.962Z,2.22
2018-07-05T11:57:53.461Z,2.35
2018-07-05T12:00:34.834Z,3.30
2018-07-05T12:03:16.069Z,5.20
2018-07-05T12:05:57.183Z,3.10
2018-07-05T12:08:38.637Z,3.02
2018-07-05T12:11:20.551Z,3.85
2018-07-05T12:14:01.798Z,2.72
2018-07-05T12:16:43.047Z,2.47
2018-07-05T12:19:24.404Z,4.80
2018-07-05T12:22:05.841Z,2.77
2018-07-05T12:24:47.333Z,3.70
2018-07-05T12:27:29.213Z,5.50
2018-07-05T12:30:11.538Z,5.28
2018-07-05T12:32:52.826Z,3.43
2018-07-05T12:35:34.605Z,8.70
2018-07-05T12:38:15.941Z,4.93
2018-07-05T12:40:57.511Z,7.07
2018-07-05T12:43:38.832Z,3.63
2018-07-05T12:46:20.121Z,3.40
2018-07-05T12:49:01.247Z,5.30
2018-07-05T12:51:42.286Z,5.63
2018-07-05T12:54:24.183Z,7.30
2018-07-05T12:57:05.240Z,5.53
2018-07-05T12:59:46.440Z,4.33
2018-07-05T13:02:27.995Z,3.23
2018-07-05T13:05:09.555Z,3.53
2018-07-05T13:07:50.893Z,4.07
2018-07-05T13:10:32.528Z,3.43
2018-07-05T13:13:13.724Z,4.57
2018-07-05T13:15:55.097Z,6.67
2018-07-05T13:18:36.309Z,3.40
2018-07-05T13:21:18.497Z,2.97
2018-07-05T13:24:00.107Z,4.97
2018-07-05T13:26:42.069Z,3.00
2018-07-05T13:29:25.483Z,5.23
2018-07-05T13:32:06.694Z,4.07
2018-07-05T13:34:47.860Z,7.70
2018-07-05T13:37:29.043Z,7.53
2018-07-05T13:40:10.309Z,5.40
2018-07-05T13:42:51.435Z,8.30
2018-07-05T13:45:33.089Z,4.27
2018-07-05T13:48:14.212Z,8.10
2018-07-05T13:50:55.685Z,6.30
2018-07-05T13:53:37.706Z,2.67
2018-07-05T13:56:18.913Z,4.17
2018-07-05T13:58:59.996Z,10.50
2018-07-05T14:01:41.405Z,6.50
2018-07-05T14:04:22.574Z,2.23
2018-07-05T14:07:03.980Z,4.10
2018-07-05T14:09:45.296Z,1.77
2018-07-05T14:12:27.503Z,4.97
2018-07-05T14:15:08.802Z,2.17
2018-07-05T14:17:50.581Z,3.10
2018-07-05T14:20:32.024Z,5.47
2018-07-05T14:23:13.057Z,4.90
2018-07-05T14:25:56.497Z,2.90
2018-07-05T14:28:37.565Z,2.37
2018-07-05T14:31:19.018Z,2.53
2018-07-05T14:34:00.315Z,2.50
2018-07-05T14:36:42.568Z,3.80
2018-07-05T14:39:24.017Z,2.07
2018-07-05T14:42:05.716Z,1.70
2018-07-05T14:44:46.848Z,4.07
2018-07-05T14:47:28.724Z,2.10
2018-07-05T14:50:10.256Z,2.67
2018-07-05T14:52:51.668Z,3.13
2018-07-05T14:55:32.813Z,2.63
2018-07-05T14:58:13.992Z,3.37
2018-07-05T15:00:55.748Z,4.80
2018-07-05T15:03:37.625Z,2.63
2018-07-05T15:06:18.801Z,3.87
2018-07-05T15:09:00.150Z,3.83
2018-07-05T15:11:41.550Z,3.53
2018-07-05T15:14:24.652Z,3.70
2018-07-05T15:17:06.479Z,3.93
2018-07-05T15:19:47.816Z,5.87
2018-07-05T15:22:30.262Z,4.33
2018-07-05T15:25:11.520Z,5.13
2018-07-05T15:27:52.650Z,11.30
2018-07-05T15:30:33.971Z,10.30
2018-07-05T15:33:27.220Z,10.97
2018-07-05T15:36:14.602Z,7.43
2018-07-05T15:38:55.914Z,8.47
2018-07-05T15:41:37.300Z,12.17
2018-07-05T15:44:19.213Z,10.07
2018-07-05T15:49:47.802Z,8.80
2018-07-05T15:52:30.428Z,10.23
2018-07-05T15:55:12.510Z,11.67
2018-07-05T15:57:54.337Z,8.63
2018-07-05T16:00:36.030Z,7.60
2018-07-05T16:03:24.846Z,11.07
2018-07-05T16:06:06.445Z,11.40
2018-07-05T16:08:48.967Z,7.03
2018-07-05T16:11:31.176Z,12.47
2018-07-05T16:14:13.024Z,8.83
2018-07-05T16:16:57.552Z,10.30
2018-07-05T16:19:40.807Z,6.80
2018-07-05T16:22:22.630Z,9.50
2018-07-05T16:25:04.769Z,12.93
2018-07-05T16:27:46.954Z,9.60
2018-07-05T16:30:28.447Z,10.67
2018-07-05T16:33:09.949Z,10.67
2018-07-05T16:35:51.525Z,9.27
2018-07-05T16:38:32.679Z,10.60
2018-07-05T16:41:13.946Z,9.43
2018-07-05T16:43:56.129Z,9.73
2018-07-05T16:46:37.601Z,13.57
2018-07-05T16:49:18.920Z,8.30
2018-07-05T16:52:00.593Z,6.13
2018-07-05T16:54:41.931Z,8.87
2018-07-05T16:57:23.069Z,10.97
2018-07-05T17:00:04.844Z,8.97
2018-07-05T17:02:46.778Z,12.17
2018-07-05T17:05:28.060Z,8.57
2018-07-05T17:08:10.290Z,8.87
2018-07-05T17:10:51.405Z,9.37
2018-07-05T17:13:33.029Z,10.03
2018-07-05T17:16:15.052Z,10.60
2018-07-05T17:18:56.307Z,8.37
2018-07-05T17:21:38.475Z,9.47
2018-07-05T17:24:19.652Z,9.63
2018-07-05T17:27:00.832Z,13.33
2018-07-05T17:29:42.107Z,5.83
2018-07-05T17:32:23.246Z,7.67
2018-07-05T17:35:05.358Z,8.93
2018-07-05T17:37:46.484Z,6.93
2018-07-05T17:40:28.521Z,6.60
2018-07-05T17:43:09.851Z,10.60
2018-07-05T17:45:51.840Z,10.40
2018-07-05T17:48:33.213Z,11.70
2018-07-05T17:51:16.212Z,9.40
2018-07-05T17:53:57.520Z,6.97
2018-07-05T17:56:39.066Z,7.97
2018-07-05T17:59:20.147Z,7.93
2018-07-05T18:02:02.405Z,6.83
2018-07-05T18:04:45.091Z,7.63
2018-07-05T18:07:26.776Z,7.83
2018-07-05T18:10:08.348Z,7.63
2018-07-05T18:12:49.478Z,27.17
2018-07-05T18:15:30.913Z,12.73
2018-07-05T18:18:12.312Z,11.97
2018-07-05T18:20:53.650Z,11.43
2018-07-05T18:23:35.050Z,10.40
2018-07-05T18:26:16.800Z,8.83
2018-07-05T18:28:58.200Z,11.23
2018-07-05T18:31:39.468Z,10.57
2018-07-05T18:34:21.286Z,11.63
2018-07-05T18:37:02.836Z,10.33
2018-07-05T18:39:44.156Z,10.87
2018-07-05T18:42:25.378Z,11.47
2018-07-05T18:45:06.620Z,14.73
2018-07-05T18:47:47.808Z,15.93
2018-07-05T18:50:28.858Z,16.10
2018-07-05T18:53:09.986Z,17.57
2018-07-05T18:55:51.297Z,14.40
2018-07-05T18:58:32.559Z,16.63
2018-07-05T19:01:14.070Z,16.53
2018-07-05T19:03:55.528Z,17.73
2018-07-05T19:06:37.182Z,15.30
2018-07-05T19:09:19.814Z,17.03
2018-07-05T19:12:01.330Z,16.43
2018-07-05T19:14:42.679Z,14.13
2018-07-05T19:17:24.072Z,15.30
2018-07-05T19:20:05.403Z,15.67
2018-07-05T19:22:47.512Z,34.20
2018-07-05T19:25:28.729Z,17.33
2018-07-05T19:28:10.354Z,14.27
2018-07-05T19:30:52.019Z,15.47
2018-07-05T19:33:33.286Z,14.83
2018-07-05T19:36:15.958Z,19.80
2018-07-05T19:38:57.744Z,15.23
2018-07-05T19:41:39.034Z,14.63
2018-07-05T19:44:20.258Z,17.53
2018-07-05T19:47:01.586Z,17.83
2018-07-05T19:49:42.815Z,18.10
2018-07-05T19:52:23.967Z,17.17
2018-07-05T19:55:05.235Z,22.80
2018-07-05T19:57:46.284Z,19.77
2018-07-05T20:00:27.771Z,17.77
2018-07-05T20:03:09.154Z,18.83
2018-07-05T20:05:50.369Z,20.17
2018-07-05T20:08:33.803Z,19.47
2018-07-05T20:11:15.528Z,17.30
2018-07-05T20:13:57.068Z,20.37
2018-07-05T20:16:38.383Z,20.20
2018-07-05T20:19:20.543Z,19.63
2018-07-05T20:22:02.474Z,28.87
2018-07-05T20:24:43.642Z,28.53
2018-07-05T20:27:25.575Z,23.90
2018-07-05T20:30:16.432Z,24.97
2018-07-05T20:32:59.050Z,28.20
2018-07-05T20:35:40.499Z,26.37
2018-07-05T20:38:22.212Z,27.40
2018-07-05T20:41:03.433Z,32.90
2018-07-05T20:43:45.513Z,25.63
2018-07-05T20:46:27.256Z,26.30
2018-07-05T20:49:08.654Z,25.30
2018-07-05T20:51:50.495Z,24.03
2018-07-05T20:54:31.697Z,26.97
2018-07-05T20:57:12.973Z,27.17
2018-07-05T20:59:54.587Z,25.20
2018-07-05T21:02:35.880Z,24.47
2018-07-05T21:05:17.182Z,29.57
2018-07-05T21:07:59.076Z,25.40
2018-07-05T21:10:40.396Z,25.00
2018-07-05T21:13:22.915Z,21.77
2018-07-05T21:16:04.902Z,27.37
2018-07-05T21:18:46.135Z,21.70
2018-07-05T21:21:27.463Z,23.80
2018-07-05T21:24:09.017Z,20.20
2018-07-05T21:26:50.165Z,20.73
2018-07-05T21:29:31.608Z,23.50
2018-07-05T21:32:13.818Z,19.07
2018-07-05T21:34:55.729Z,18.30
2018-07-05T21:37:37.616Z,18.03
2018-07-05T21:40:18.739Z,18.77
2018-07-05T21:43:00.682Z,19.83
2018-07-05T21:45:42.328Z,19.90
2018-07-05T21:48:23.873Z,16.73
2018-07-05T21:51:06.142Z,17.03
2018-07-05T21:53:47.934Z,16.63
2018-07-05T21:56:29.171Z,16.27
2018-07-05T21:59:10.620Z,17.70
2018-07-05T22:01:52.233Z,16.97
2018-07-05T22:04:33.591Z,16.37
2018-07-05T22:07:15.937Z,15.83
2018-07-05T22:09:57.504Z,17.00
2018-07-05T22:12:39.001Z,17.90
2018-07-05T22:15:21.982Z,16.57
2018-07-05T22:18:13.401Z,18.80
2018-07-05T22:21:01.642Z,17.83
2018-07-05T22:25:53.063Z,15.97
2018-07-05T22:28:39.399Z,19.73
2018-07-05T22:31:25.718Z,18.30
2018-07-05T22:34:07.044Z,16.93
2018-07-05T22:36:48.210Z,16.87
2018-07-05T22:39:29.504Z,15.97
2018-07-05T22:42:10.735Z,14.90
2018-07-05T22:44:52.585Z,15.77
2018-07-05T22:47:34.253Z,16.60
2018-07-05T22:50:16.606Z,16.00
2018-07-05T22:52:58.293Z,15.93
2018-07-05T22:55:40.305Z,16.70
2018-07-05T22:58:22.409Z,17.67
2018-07-05T23:01:03.629Z,17.70
2018-07-05T23:03:45.078Z,17.27
2018-07-05T23:06:26.397Z,19.57
2018-07-05T23:09:09.348Z,23.60
2018-07-05T23:11:50.487Z,18.37
2018-07-05T23:14:32.426Z,21.83
2018-07-05T23:17:13.806Z,23.37
2018-07-05T23:19:56.602Z,19.60
2018-07-05T23:22:37.862Z,23.27
2018-07-05T23:25:19.802Z,18.53
2018-07-05T23:28:01.108Z,23.93
2018-07-05T23:30:44.786Z,19.70
2018-07-05T23:33:29.143Z,18.77
2018-07-05T23:36:10.377Z,19.57
2018-07-05T23:38:52.298Z,26.10
2018-07-05T23:41:33.541Z,19.43
2018-07-05T23:44:15.420Z,28.43
2018-07-05T23:46:57.091Z,24.33
2018-07-05T23:49:38.622Z,26.10
2018-07-05T23:52:19.727Z,23.60
2018-07-05T23:55:00.996Z,26.57
2018-07-05T23:57:43.261Z,22.47
